createdAt,value
2019-04-23T00:02:18.592Z,11.30
2019-04-23T00:04:55.548Z,11.30
2019-04-23T00:07:43.152Z,11.30
2019-04-23T00:10:06.352Z,11.40
2019-04-23T00:15:09.279Z,11.30
2019-04-23T00:20:12.607Z,11.30
2019-04-23T00:22:51.820Z,11.30
2019-04-23T00:28:21.596Z,11.30
2019-04-23T00:33:25.294Z,11.30
2019-04-23T00:36:10.666Z,11.20
2019-04-23T00:40:59.608Z,11.20
2019-04-23T00:43:48.545Z,11.20
2019-04-23T00:45:59.693Z,11.20
2019-04-23T00:48:40.958Z,11.10
2019-04-23T00:51:02.337Z,11.10
2019-04-23T00:53:38.885Z,11.10
2019-04-23T00:56:32.441Z,11.00
2019-04-23T00:58:48.009Z,11.00
2019-04-23T01:01:22.508Z,11.00
2019-04-23T01:03:53.441Z,11.00
2019-04-23T01:09:00.031Z,11.10
2019-04-23T01:11:27.675Z,11.10
2019-04-23T01:13:52.993Z,11.20
2019-04-23T01:16:28.306Z,11.30
2019-04-23T01:19:27.138Z,11.30
2019-04-23T01:21:35.088Z,11.20
2019-04-23T01:24:32.483Z,11.10
2019-04-23T01:32:43.672Z,10.90
2019-04-23T01:35:17.575Z,10.80
2019-04-23T01:37:47.815Z,10.90
2019-04-23T01:40:25.981Z,10.80
2019-04-23T01:42:48.958Z,10.80
2019-04-23T01:45:30.730Z,10.80
2019-04-23T01:47:58.064Z,10.90
2019-04-23T01:50:33.881Z,10.80
2019-04-23T01:55:36.739Z,10.80
2019-04-23T01:58:27.485Z,10.70
2019-04-23T02:00:44.550Z,10.70
2019-04-23T02:03:29.424Z,10.70
2019-04-23T02:08:13.951Z,10.70
2019-04-23T02:11:06.797Z,10.70
2019-04-23T02:13:27.281Z,10.70
2019-04-23T02:15:55.480Z,10.80
2019-04-23T02:18:43.942Z,10.80
2019-04-23T02:21:16.856Z,10.70
2019-04-23T02:23:49.091Z,10.70
2019-04-23T02:26:26.443Z,10.70
2019-04-23T02:28:59.122Z,10.60
2019-04-23T02:31:45.170Z,10.50
2019-04-23T02:36:39.753Z,10.50
2019-04-23T02:39:22.631Z,10.40
2019-04-23T02:41:46.342Z,10.40
2019-04-23T02:46:43.594Z,10.30
2019-04-23T02:49:22.112Z,10.20
2019-04-23T02:51:51.084Z,10.10
2019-04-23T02:54:38.067Z,10.10
2019-04-23T02:56:51.450Z,10.10
2019-04-23T02:59:58.217Z,10.00
2019-04-23T03:04:50.308Z,9.80
2019-04-23T03:10:03.175Z,9.80
2019-04-23T03:12:44.137Z,9.80
2019-04-23T03:15:21.826Z,9.70
2019-04-23T03:20:59.508Z,9.60
2019-04-23T03:36:10.776Z,9.50
2019-04-23T03:38:48.717Z,9.60
2019-04-23T03:51:28.583Z,9.60
2019-04-23T03:54:11.752Z,9.40
2019-04-23T03:59:11.231Z,9.40
2019-04-23T04:01:40.374Z,9.40
2019-04-23T04:06:43.180Z,9.40
2019-04-23T04:11:29.189Z,9.40
2019-04-23T04:19:24.693Z,9.40
2019-04-23T04:22:00.232Z,9.50
2019-04-23T04:26:58.058Z,9.50
2019-04-23T04:29:47.427Z,9.60
2019-04-23T04:32:03.742Z,9.70
2019-04-23T04:34:55.532Z,9.70
2019-04-23T04:39:49.739Z,9.80
2019-04-23T04:49:51.709Z,9.90
2019-04-23T04:54:39.363Z,10.00
2019-04-23T04:57:30.179Z,10.20
2019-04-23T05:00:03.926Z,10.20
2019-04-23T05:02:53.090Z,10.10
2019-04-23T05:05:05.186Z,10.20
2019-04-23T05:12:27.556Z,10.30
2019-04-23T05:15:02.654Z,10.30
2019-04-23T05:17:51.920Z,10.30
2019-04-23T05:20:21.204Z,10.50
2019-04-23T05:23:03.488Z,10.60
2019-04-23T05:25:17.506Z,10.70
2019-04-23T05:30:33.084Z,10.70
2019-04-23T05:32:57.966Z,10.80
2019-04-23T05:38:08.884Z,11.00
2019-04-23T05:45:34.415Z,11.20
2019-04-23T05:48:12.978Z,11.40
2019-04-23T05:53:12.308Z,11.40
2019-04-23T05:55:51.610Z,11.40
2019-04-23T05:58:22.110Z,11.60
2019-04-23T06:01:08.165Z,11.70
2019-04-23T06:03:24.874Z,11.70
2019-04-23T06:08:33.652Z,12.10
2019-04-23T06:11:02.461Z,11.90
2019-04-23T06:13:36.193Z,11.80
2019-04-23T06:16:05.234Z,11.90
2019-04-23T06:18:40.830Z,11.90
2019-04-23T06:21:10.182Z,11.90
2019-04-23T06:23:43.569Z,11.80
2019-04-23T06:28:43.690Z,12.20
2019-04-23T06:33:47.949Z,12.50
2019-04-23T06:38:56.893Z,12.20
2019-04-23T06:44:22.473Z,12.30
2019-04-23T06:46:39.790Z,12.40
2019-04-23T06:49:09.453Z,12.40
2019-04-23T06:51:44.073Z,12.60
2019-04-23T06:54:12.329Z,12.70
2019-04-23T06:56:54.281Z,12.90
2019-04-23T06:59:17.015Z,13.00
2019-04-23T07:01:54.468Z,13.30
2019-04-23T07:04:32.757Z,13.60
2019-04-23T07:07:19.176Z,13.00
2019-04-23T07:09:42.358Z,13.00
2019-04-23T07:11:55.516Z,13.00
2019-04-23T07:14:42.420Z,12.80
2019-04-23T07:17:03.811Z,13.00
2019-04-23T07:19:35.587Z,13.10
2019-04-23T07:22:14.512Z,13.40
2019-04-23T07:24:41.945Z,13.40
2019-04-23T07:27:13.457Z,13.60
2019-04-23T07:29:50.082Z,13.60
2019-04-23T07:32:15.654Z,13.80
2019-04-23T07:34:55.290Z,13.80
2019-04-23T07:37:30.759Z,13.70
2019-04-23T07:40:22.986Z,13.90
2019-04-23T07:42:51.219Z,13.60
2019-04-23T07:45:30.268Z,13.80
2019-04-23T07:48:16.627Z,13.90
2019-04-23T07:53:23.326Z,13.70
2019-04-23T07:58:25.773Z,14.00
2019-04-23T08:01:09.933Z,14.10
2019-04-23T08:03:39.805Z,14.10
2019-04-23T08:06:03.933Z,14.20
2019-04-23T08:08:33.277Z,14.50
2019-04-23T08:16:31.174Z,14.60
2019-04-23T08:21:29.068Z,14.40
2019-04-23T08:24:40.833Z,14.90
2019-04-23T08:27:25.060Z,15.30
2019-04-23T08:29:55.834Z,15.50
2019-04-23T08:32:22.782Z,15.60
2019-04-23T08:38:04.565Z,15.60
2019-04-23T08:40:09.642Z,15.50
2019-04-23T08:45:21.738Z,15.40
2019-04-23T08:48:09.818Z,15.50
2019-04-23T08:53:17.893Z,15.40
2019-04-23T08:55:46.857Z,15.50
2019-04-23T08:58:13.315Z,15.60
2019-04-23T09:00:51.821Z,15.80
2019-04-23T09:06:00.630Z,15.70
2019-04-23T09:11:06.794Z,15.70
2019-04-23T09:16:01.800Z,16.40
2019-04-23T09:18:37.073Z,16.00
2019-04-23T09:21:16.054Z,16.10
2019-04-23T09:23:46.958Z,16.20
2019-04-23T09:26:30.902Z,16.10
2019-04-23T09:28:51.850Z,16.30
2019-04-23T09:31:45.671Z,16.50
2019-04-23T09:34:04.934Z,16.60
2019-04-23T09:37:06.211Z,16.60
2019-04-23T09:39:58.774Z,16.90
2019-04-23T09:43:13.778Z,17.10
2019-04-23T09:45:57.746Z,16.90
2019-04-23T09:48:33.586Z,16.90
2019-04-23T09:51:02.502Z,17.10
2019-04-23T09:53:58.070Z,16.90
2019-04-23T09:56:14.650Z,16.40
2019-04-23T09:59:07.399Z,16.60
2019-04-23T10:03:50.848Z,17.00
2019-04-23T10:06:18.300Z,16.80
2019-04-23T10:08:47.424Z,16.90
2019-04-23T10:11:16.055Z,17.20
2019-04-23T10:13:50.464Z,17.10
2019-04-23T10:16:23.652Z,17.50
2019-04-23T10:18:55.148Z,17.40
2019-04-23T10:21:26.238Z,17.10
2019-04-23T10:23:59.254Z,17.40
2019-04-23T10:26:30.414Z,17.60
2019-04-23T10:29:05.545Z,17.60
2019-04-23T10:31:37.482Z,17.50
2019-04-23T10:34:08.273Z,17.50
2019-04-23T10:36:42.164Z,17.70
2019-04-23T10:39:19.583Z,17.50
2019-04-23T10:41:47.898Z,17.90
2019-04-23T10:44:23.333Z,17.90
2019-04-23T10:47:41.565Z,17.90
2019-04-23T10:50:40.728Z,17.90
2019-04-23T10:53:19.836Z,17.80
2019-04-23T10:55:46.811Z,17.90
2019-04-23T10:58:16.434Z,18.00
2019-04-23T11:00:54.136Z,18.00
2019-04-23T11:05:59.121Z,17.70
2019-04-23T11:08:31.828Z,17.90
2019-04-23T11:11:09.465Z,18.00
2019-04-23T11:13:39.033Z,17.90
2019-04-23T11:16:41.997Z,18.00
2019-04-23T11:21:24.069Z,18.40
2019-04-23T11:23:51.900Z,18.20
2019-04-23T11:26:28.599Z,18.10
2019-04-23T11:28:59.850Z,18.10
2019-04-23T11:31:39.537Z,17.70
2019-04-23T11:34:19.723Z,17.90
2019-04-23T11:39:17.094Z,18.00
2019-04-23T11:44:18.799Z,18.00
2019-04-23T11:49:34.672Z,18.50
2019-04-23T11:52:01.701Z,18.70
2019-04-23T11:54:24.181Z,18.40
2019-04-23T11:57:22.245Z,18.50
2019-04-23T11:59:43.580Z,18.20
2019-04-23T12:02:19.411Z,18.10
2019-04-23T12:07:37.591Z,18.30
2019-04-23T12:10:23.677Z,18.60
2019-04-23T12:13:03.856Z,18.70
2019-04-23T12:15:25.366Z,18.70
2019-04-23T12:18:11.006Z,18.50
2019-04-23T12:20:33.734Z,18.70
2019-04-23T12:23:29.571Z,18.50
2019-04-23T12:25:36.591Z,18.50
2019-04-23T12:27:59.554Z,18.80
2019-04-23T12:30:46.120Z,18.80
2019-04-23T12:33:11.616Z,19.10
2019-04-23T12:35:40.429Z,18.80
2019-04-23T12:40:51.126Z,18.70
2019-04-23T12:43:18.975Z,18.70
2019-04-23T12:45:47.080Z,18.90
2019-04-23T12:48:44.043Z,19.10
2019-04-23T12:51:01.281Z,18.90
2019-04-23T12:53:37.942Z,18.90
2019-04-23T12:56:06.857Z,19.30
2019-04-23T12:58:32.129Z,18.90
2019-04-23T13:01:07.294Z,18.50
2019-04-23T13:06:11.369Z,18.30
2019-04-23T13:11:21.534Z,18.90
2019-04-23T13:13:58.898Z,18.80
2019-04-23T13:16:38.022Z,19.00
2019-04-23T13:19:05.736Z,19.30
2019-04-23T13:21:53.502Z,19.50
2019-04-23T13:24:18.746Z,20.00
2019-04-23T13:26:44.528Z,20.30
2019-04-23T13:29:34.442Z,20.20
2019-04-23T13:31:55.812Z,19.80
2019-04-23T13:34:38.464Z,19.60
2019-04-23T13:37:01.569Z,19.20
2019-04-23T13:39:34.000Z,19.30
2019-04-23T13:42:07.427Z,19.20
2019-04-23T13:44:38.223Z,19.00
2019-04-23T13:47:15.695Z,19.00
2019-04-23T13:49:42.046Z,18.90
2019-04-23T13:52:37.861Z,19.00
2019-04-23T13:54:59.603Z,18.90
2019-04-23T13:57:44.971Z,18.90
2019-04-23T13:59:48.310Z,18.90
2019-04-23T14:02:34.286Z,19.00
2019-04-23T14:05:13.001Z,19.10
2019-04-23T14:13:10.813Z,18.90
2019-04-23T14:18:36.448Z,18.80
2019-04-23T14:20:34.860Z,18.70
2019-04-23T14:25:50.597Z,18.40
2019-04-23T14:30:55.496Z,18.20
2019-04-23T14:43:31.371Z,16.90
2019-04-23T14:48:56.941Z,16.50
2019-04-23T14:51:31.552Z,16.40
2019-04-23T14:54:00.136Z,16.40
2019-04-23T14:56:37.482Z,16.30
2019-04-23T14:59:10.965Z,16.20
2019-04-23T15:01:47.566Z,16.10
2019-04-23T15:04:01.579Z,16.00
2019-04-23T15:06:46.709Z,15.80
2019-04-23T15:11:53.400Z,15.70
2019-04-23T15:14:17.748Z,15.70
2019-04-23T15:16:51.459Z,15.90
2019-04-23T15:19:37.297Z,16.00
2019-04-23T15:29:31.889Z,16.30
2019-04-23T15:32:34.323Z,16.40
2019-04-23T15:35:02.968Z,16.50
2019-04-23T15:37:41.554Z,16.40
2019-04-23T15:40:00.842Z,16.50
2019-04-23T15:42:31.369Z,16.50
2019-04-23T15:45:09.270Z,16.40
2019-04-23T15:47:40.053Z,16.40
2019-04-23T15:52:53.085Z,16.10
2019-04-23T15:55:14.462Z,15.90
2019-04-23T15:58:05.410Z,16.00
2019-04-23T16:00:15.763Z,15.90
2019-04-23T16:02:21.658Z,15.90
2019-04-23T16:04:53.171Z,15.80
2019-04-23T16:07:45.844Z,15.90
2019-04-23T16:10:29.614Z,15.90
2019-04-23T16:13:02.926Z,15.90
2019-04-23T16:15:29.154Z,15.90
2019-04-23T16:18:31.248Z,15.90
2019-04-23T16:21:00.862Z,15.80
2019-04-23T16:23:26.328Z,15.60
2019-04-23T16:25:58.460Z,15.50
2019-04-23T16:28:42.202Z,15.40
2019-04-23T16:31:15.013Z,15.40
2019-04-23T16:33:48.559Z,15.30
2019-04-23T16:36:23.116Z,15.40
2019-04-23T16:38:54.503Z,15.30
2019-04-23T16:41:24.394Z,15.20
2019-04-23T16:43:57.722Z,15.10
2019-04-23T16:46:25.195Z,15.00
2019-04-23T16:49:10.191Z,14.90
2019-04-23T16:51:32.434Z,15.00
2019-04-23T16:54:09.903Z,15.00
2019-04-23T16:56:55.235Z,15.00
2019-04-23T17:01:46.969Z,14.90
2019-04-23T17:09:22.004Z,15.10
2019-04-23T17:12:03.083Z,15.20
2019-04-23T17:14:32.212Z,15.30
2019-04-23T17:16:49.905Z,15.40
2019-04-23T17:19:29.490Z,15.50
2019-04-23T17:22:04.320Z,15.60
2019-04-23T17:24:29.990Z,15.60
2019-04-23T17:27:16.654Z,15.70
2019-04-23T17:32:18.067Z,15.80
2019-04-23T17:35:04.809Z,15.90
2019-04-23T17:37:33.309Z,15.90
2019-04-23T17:43:01.734Z,16.00
2019-04-23T17:45:45.184Z,16.00
2019-04-23T17:48:41.924Z,16.00
2019-04-23T17:56:16.727Z,16.00
2019-04-23T18:01:21.893Z,16.10
2019-04-23T18:03:57.432Z,16.10
2019-04-23T18:06:38.008Z,16.00
2019-04-23T18:09:03.745Z,16.10
2019-04-23T18:14:02.602Z,16.10
2019-04-23T18:16:41.172Z,16.00
2019-04-23T18:19:14.599Z,16.00
2019-04-23T18:21:50.676Z,16.00
2019-04-23T18:24:36.655Z,16.00
2019-04-23T18:27:15.433Z,16.00
2019-04-23T18:30:02.864Z,15.90
2019-04-23T18:32:42.953Z,15.90
2019-04-23T18:37:41.467Z,15.80
2019-04-23T18:40:12.216Z,15.80
2019-04-23T18:45:32.748Z,15.90
2019-04-23T18:48:33.670Z,15.90
2019-04-23T18:51:00.206Z,15.90
2019-04-23T18:53:41.221Z,16.00
2019-04-23T18:58:44.660Z,15.90
2019-04-23T19:01:05.337Z,15.90
2019-04-23T19:04:21.587Z,16.00
2019-04-23T19:06:44.150Z,16.00
2019-04-23T19:12:56.986Z,16.00
2019-04-23T19:15:37.986Z,16.00
2019-04-23T19:18:18.721Z,15.90
2019-04-23T19:20:53.833Z,16.00
2019-04-23T19:25:45.440Z,16.00
2019-04-23T19:31:01.844Z,16.10
2019-04-23T19:33:47.904Z,16.10
2019-04-23T19:36:11.472Z,15.90
2019-04-23T19:38:43.450Z,16.00
2019-04-23T19:41:19.220Z,16.00
2019-04-23T19:43:53.171Z,16.10
2019-04-23T19:48:57.772Z,16.30
2019-04-23T19:51:26.960Z,16.30
2019-04-23T19:54:16.714Z,16.30
2019-04-23T19:59:01.834Z,16.30
2019-04-23T20:01:39.692Z,16.30
2019-04-23T20:04:07.752Z,16.30
2019-04-23T20:09:30.857Z,16.30
2019-04-23T20:11:52.981Z,16.40
2019-04-23T20:14:19.372Z,16.30
2019-04-23T20:19:35.939Z,16.30
2019-04-23T20:22:00.412Z,16.20
2019-04-23T20:24:41.836Z,16.20
2019-04-23T20:27:11.845Z,16.20
2019-04-23T20:30:14.578Z,16.20
2019-04-23T20:40:25.858Z,16.20
2019-04-23T20:42:53.006Z,16.20
2019-04-23T20:45:20.650Z,16.10
2019-04-23T20:48:01.977Z,16.20
2019-04-23T20:50:26.179Z,16.20
2019-04-23T20:52:57.510Z,16.10
2019-04-23T20:58:14.100Z,16.10
2019-04-23T21:01:00.305Z,16.10
2019-04-23T21:06:07.059Z,16.00
2019-04-23T21:08:52.433Z,16.00
2019-04-23T21:11:05.286Z,15.90
2019-04-23T21:14:02.076Z,15.80
2019-04-23T21:16:13.247Z,15.80
2019-04-23T21:18:44.326Z,15.80
2019-04-23T21:21:17.958Z,15.80
2019-04-23T21:26:22.223Z,15.70
2019-04-23T21:28:54.264Z,15.70
2019-04-23T21:31:31.951Z,15.70
2019-04-23T21:34:04.246Z,15.60
2019-04-23T21:40:00.998Z,15.50
2019-04-23T21:42:20.823Z,15.40
2019-04-23T21:45:10.371Z,15.40
2019-04-23T21:47:15.037Z,15.40
2019-04-23T21:50:00.798Z,15.40
2019-04-23T21:52:25.578Z,15.40
2019-04-23T21:54:56.903Z,15.40
2019-04-23T21:57:37.073Z,15.40
2019-04-23T22:00:02.491Z,15.30
2019-04-23T22:02:57.435Z,15.30
2019-04-23T22:05:12.674Z,15.20
2019-04-23T22:07:51.532Z,15.20
2019-04-23T22:10:12.091Z,15.20
2019-04-23T22:13:00.557Z,15.10
2019-04-23T22:15:13.091Z,15.20
2019-04-23T22:20:25.765Z,15.20
2019-04-23T22:25:33.106Z,15.10
2019-04-23T22:28:08.291Z,15.10
2019-04-23T22:30:37.059Z,15.10
2019-04-23T22:35:43.211Z,15.20
2019-04-23T22:40:42.356Z,15.10
2019-04-23T22:45:52.676Z,15.00
2019-04-23T22:48:13.727Z,15.00
2019-04-23T22:50:57.226Z,15.00
2019-04-23T22:53:13.768Z,15.10
2019-04-23T22:58:22.284Z,14.90
2019-04-23T23:01:26.065Z,14.90
2019-04-23T23:06:48.863Z,14.90
2019-04-23T23:09:19.246Z,14.80
2019-04-23T23:11:49.748Z,14.80
2019-04-23T23:14:27.538Z,14.70
2019-04-23T23:16:50.345Z,14.80
2019-04-23T23:19:28.265Z,14.70
2019-04-23T23:22:03.343Z,14.70
2019-04-23T23:24:18.395Z,14.60
2019-04-23T23:29:34.653Z,14.60
2019-04-23T23:34:38.291Z,14.60
2019-04-23T23:37:07.541Z,14.60
2019-04-23T23:42:19.623Z,14.60
2019-04-23T23:47:14.857Z,14.50
2019-04-23T23:49:56.368Z,14.50
2019-04-23T23:52:21.734Z,14.60
2019-04-23T23:55:01.428Z,14.50
2019-04-23T23:57:21.527Z,14.50
